Airfield :
LOGIN :

Register | Disclaimer

   EN    FR    IT 

 










Legend :    VFR   Marginal VFR   IFR   Intensive IFR   Very Intensive IFR
Visi :
Ceiling :
>= 8 km
>= 3000ft
5 to 8 km
1000 to 3000 ft
1500m to 5 km
500 to 1000 ft
800 to 1500m
200 to 500 ft
< 800m
< 200 ft
Symbols :   Thunderstorms  Fog  Heavy snow  Heavy precipitations  Wind > 20 kt
SIGMETs :     Misc.  Thunderstorms  Icing  Turbulence  Mountain Waves  Volcanic Ashes







- Airport Elevation : 25 ft
- IATA code : QCY


EGXC - RAF Coningsby

CURRENT METAR :
  • 190550Z 27001KT 9999 0600SW BCFG SCT300 07/06 Q1031 BECMG 9999 NSW RMK RED BECMG BLU

EXPIRED METARs :
  • 190522Z 32001KT 9999 0600SW BCFG MIFG FEW300 06/06 Q1031 BECMG CAVOK RMK RED BECMG BLU
  • 190450Z 04001KT 9999 0400S BCFG MIFG FEW300 06/06 Q1030 TEMPO 9999 MIFG RMK RED TEMPO BLU
  • 190442Z 06001KT 0600 BCFG MIFG FEW000 07/06 Q1030 RMK RED
  • 190432Z 05001KT 9999 MIFG FEW300 07/07 Q1030 RMK BLU
  • 190423Z 26001KT 9999 0800SW BCFG MIFG FEW300 07/07 Q1030 RMK AMB
  • 190350Z 00000KT 9999 MIFG FEW300 07/06 Q1030 RMK BLU

TAF TAF EGXC
Valid from the 19 at 06:00 until the 20 at 00:00 UTC


190458Z 1906/1924 VRB02KT CAVOK
PROB30 1906/1907 0400 FG
PROB30
TEMPO 1906/1908 SCT003
No reported NOTAMs for that airfield.



MET'MAP, your aeronautical weather chart ! - Copyright ORBIFLY December 2007 - Disclaimer

ORBIFLY MET'MAP TEAM :

Programming & Development : Alexandra Zaïnal
Concept & Development : Baudouin d'Aumeries
Co-Development & Prog : Marc-Olivier Méhu
Technical & hardware support : Manuel Goepfert

Contact : metmap@orbifly.com




SOURCES & CREDITS :

   NOAA